createdAt,value
2022-12-25T00:01:33.931Z,91.11
2022-12-25T00:04:00.754Z,90.98
2022-12-25T00:06:27.932Z,90.73
2022-12-25T00:08:54.379Z,90.58
2022-12-25T00:11:21.444Z,90.48
2022-12-25T00:13:49.073Z,90.41
2022-12-25T00:16:26.952Z,90.31
2022-12-25T00:18:55.750Z,90.25
2022-12-25T00:21:22.523Z,90.22
2022-12-25T00:23:54.624Z,90.23
2022-12-25T00:26:21.620Z,90.47
2022-12-25T00:28:48.222Z,90.52
2022-12-25T00:31:17.714Z,90.67
2022-12-25T00:33:46.936Z,90.72
2022-12-25T00:36:15.717Z,90.91
2022-12-25T00:38:42.759Z,90.82
2022-12-25T00:41:11.714Z,90.83
2022-12-25T00:43:38.795Z,90.78
2022-12-25T00:46:07.022Z,90.68
2022-12-25T00:48:35.053Z,90.71
2022-12-25T00:51:04.567Z,90.64
2022-12-25T00:53:31.119Z,90.47
2022-12-25T00:56:04.423Z,90.47
2022-12-25T01:00:35.973Z,90.31
2022-12-25T01:03:02.517Z,89.99
2022-12-25T01:05:28.929Z,90.18
2022-12-25T01:07:55.322Z,90.14
2022-12-25T01:10:24.954Z,90.32
2022-12-25T01:12:52.883Z,90.31
2022-12-25T01:15:19.522Z,90.13
2022-12-25T01:17:46.505Z,90.21
2022-12-25T01:20:14.730Z,90.28
2022-12-25T01:22:41.882Z,90.15
2022-12-25T01:25:09.265Z,90.22
2022-12-25T01:27:35.731Z,90.23
2022-12-25T01:30:02.275Z,90.16
2022-12-25T01:32:30.169Z,90.25
2022-12-25T01:34:56.654Z,90.06
2022-12-25T01:37:24.649Z,89.97
2022-12-25T01:39:51.283Z,89.97
2022-12-25T01:42:19.627Z,89.92
2022-12-25T01:44:49.055Z,89.92
2022-12-25T01:47:18.064Z,89.80
2022-12-25T01:49:48.164Z,89.82
2022-12-25T01:52:23.603Z,89.84
2022-12-25T01:54:56.198Z,89.69
2022-12-25T01:57:29.017Z,89.61
2022-12-25T01:59:58.696Z,89.68
2022-12-25T02:02:25.771Z,89.43
2022-12-25T02:04:58.356Z,89.36
2022-12-25T02:07:27.701Z,89.27
2022-12-25T02:09:57.057Z,89.20
2022-12-25T02:12:30.331Z,89.24
2022-12-25T02:15:05.372Z,89.10
2022-12-25T02:17:49.585Z,89.30
2022-12-25T02:21:00.800Z,89.27
2022-12-25T02:24:01.470Z,89.35
2022-12-25T02:26:40.770Z,89.15
2022-12-25T02:29:17.313Z,89.20
2022-12-25T02:32:15.890Z,88.93
2022-12-25T02:34:47.301Z,89.04
2022-12-25T02:37:38.436Z,89.39
2022-12-25T02:40:20.625Z,89.63
2022-12-25T02:43:13.371Z,89.97
2022-12-25T02:46:07.306Z,90.04
2022-12-25T02:48:57.092Z,90.04
2022-12-25T02:51:45.663Z,89.98
2022-12-25T02:54:35.205Z,90.05
2022-12-25T02:57:24.193Z,89.93
2022-12-25T03:00:11.965Z,89.91
2022-12-25T03:03:00.245Z,89.99
2022-12-25T03:05:47.905Z,90.18
2022-12-25T03:08:20.381Z,90.25
2022-12-25T03:11:18.393Z,90.42
2022-12-25T03:13:51.339Z,90.44
2022-12-25T03:16:37.212Z,90.28
2022-12-25T03:19:24.181Z,90.33
2022-12-25T03:22:09.610Z,90.29
2022-12-25T03:24:54.397Z,90.26
2022-12-25T03:27:20.851Z,90.19
2022-12-25T03:30:05.957Z,90.25
2022-12-25T03:32:58.742Z,90.22
2022-12-25T03:36:06.072Z,90.33
2022-12-25T03:39:23.570Z,90.24
2022-12-25T03:42:16.010Z,90.08
2022-12-25T03:45:24.285Z,90.03
2022-12-25T03:48:12.245Z,89.94
2022-12-25T03:51:28.932Z,89.92
2022-12-25T03:54:18.693Z,89.88
2022-12-25T03:57:04.752Z,89.91
2022-12-25T03:59:51.411Z,90.04
2022-12-25T04:02:36.535Z,90.27
2022-12-25T04:05:22.207Z,90.09
2022-12-25T04:08:07.053Z,90.15
2022-12-25T04:10:52.072Z,90.13
2022-12-25T04:13:36.902Z,90.26
2022-12-25T04:16:22.468Z,90.22
2022-12-25T04:19:07.715Z,90.13
2022-12-25T04:21:52.691Z,90.01
2022-12-25T04:24:37.629Z,89.80
2022-12-25T04:27:22.956Z,89.71
2022-12-25T04:30:07.791Z,89.50
2022-12-25T04:32:52.581Z,89.68
2022-12-25T04:35:37.440Z,89.88
2022-12-25T04:38:03.877Z,89.81
2022-12-25T04:40:30.282Z,89.92
2022-12-25T04:42:56.670Z,89.93
2022-12-25T04:45:23.118Z,90.14
2022-12-25T04:47:49.533Z,90.39
2022-12-25T04:50:15.890Z,90.20
2022-12-25T04:52:42.359Z,90.24
2022-12-25T04:55:10.377Z,90.13
2022-12-25T04:57:37.305Z,90.09
2022-12-25T05:00:05.185Z,90.15
2022-12-25T05:02:31.808Z,90.42
2022-12-25T05:04:58.453Z,90.36
2022-12-25T05:07:24.950Z,90.26
2022-12-25T05:09:51.431Z,90.18
2022-12-25T05:12:17.871Z,90.16
2022-12-25T05:14:44.390Z,90.22
2022-12-25T05:17:10.834Z,90.21
2022-12-25T05:19:37.209Z,90.22
2022-12-25T05:22:03.695Z,90.14
2022-12-25T05:24:30.197Z,90.33
2022-12-25T05:26:56.626Z,90.35
2022-12-25T05:29:23.016Z,90.10
2022-12-25T05:31:49.486Z,90.20
2022-12-25T05:34:15.981Z,90.07
2022-12-25T05:36:43.537Z,89.86
2022-12-25T05:39:09.957Z,89.64
2022-12-25T05:41:36.366Z,89.66
2022-12-25T05:44:02.857Z,89.51
2022-12-25T05:46:29.431Z,89.34
2022-12-25T05:48:55.864Z,89.08
2022-12-25T05:51:22.599Z,88.96
2022-12-25T05:53:49.053Z,88.90
2022-12-25T05:56:15.426Z,88.91
2022-12-25T05:58:41.865Z,88.57
2022-12-25T06:01:19.431Z,88.59
2022-12-25T06:03:46.060Z,88.68
2022-12-25T06:06:13.115Z,88.99
2022-12-25T06:08:39.668Z,88.72
2022-12-25T06:11:07.169Z,88.84
2022-12-25T06:13:34.083Z,88.69
2022-12-25T06:16:05.026Z,88.49
2022-12-25T06:18:31.568Z,88.51
2022-12-25T06:20:58.043Z,88.27
2022-12-25T06:23:24.525Z,88.00
2022-12-25T06:25:50.956Z,88.16
2022-12-25T06:28:17.454Z,88.12
2022-12-25T06:30:43.857Z,88.11
2022-12-25T06:33:10.340Z,87.99
2022-12-25T06:35:39.428Z,88.03
2022-12-25T06:38:06.098Z,87.97
2022-12-25T06:40:32.568Z,87.91
2022-12-25T06:43:01.322Z,87.66
2022-12-25T06:45:27.807Z,87.77
2022-12-25T06:47:54.274Z,87.87
2022-12-25T06:50:20.755Z,87.90
2022-12-25T06:52:47.283Z,88.01
2022-12-25T06:55:13.735Z,88.16
2022-12-25T06:57:40.140Z,88.28
2022-12-25T07:00:07.475Z,88.08
2022-12-25T07:02:35.289Z,88.09
2022-12-25T07:05:04.271Z,87.91
2022-12-25T07:07:30.667Z,87.88
2022-12-25T07:09:57.055Z,87.82
2022-12-25T07:12:24.246Z,87.95
2022-12-25T07:14:50.702Z,87.85
2022-12-25T07:17:18.174Z,87.94
2022-12-25T07:19:46.147Z,88.16
2022-12-25T07:22:13.185Z,88.18
2022-12-25T07:24:39.680Z,88.24
2022-12-25T07:27:06.325Z,88.25
2022-12-25T07:32:36.565Z,87.93
2022-12-25T07:35:03.135Z,87.97
2022-12-25T07:37:29.473Z,87.83
2022-12-25T07:39:55.875Z,88.13
2022-12-25T07:42:25.298Z,88.23
2022-12-25T07:44:53.313Z,88.21
2022-12-25T07:47:19.682Z,88.35
2022-12-25T07:49:46.140Z,88.28
2022-12-25T07:52:12.580Z,88.20
2022-12-25T07:54:39.015Z,88.25
2022-12-25T07:57:05.486Z,88.37
2022-12-25T07:59:31.872Z,88.49
2022-12-25T08:01:58.408Z,88.20
2022-12-25T08:04:24.991Z,88.24
2022-12-25T08:06:51.366Z,88.18
2022-12-25T08:09:17.780Z,88.37
2022-12-25T08:11:46.903Z,88.28
2022-12-25T08:14:14.020Z,88.26
2022-12-25T08:16:41.680Z,88.16
2022-12-25T08:19:09.303Z,88.03
2022-12-25T08:21:35.683Z,87.96
2022-12-25T08:24:03.073Z,88.12
2022-12-25T08:26:29.514Z,88.43
2022-12-25T08:28:56.007Z,88.74
2022-12-25T08:31:26.215Z,88.96
2022-12-25T08:33:55.188Z,89.26
2022-12-25T08:36:22.740Z,89.28
2022-12-25T08:38:49.395Z,89.25
2022-12-25T08:41:16.469Z,89.33
2022-12-25T08:43:43.539Z,89.29
2022-12-25T08:46:10.145Z,89.36
2022-12-25T08:48:36.759Z,89.28
2022-12-25T08:51:04.718Z,89.46
2022-12-25T08:53:31.148Z,89.47
2022-12-25T08:56:06.007Z,89.52
2022-12-25T08:58:32.725Z,89.64
2022-12-25T09:00:59.859Z,89.70
2022-12-25T09:03:26.804Z,89.71
2022-12-25T09:05:55.308Z,89.97
2022-12-25T09:08:21.974Z,90.11
2022-12-25T09:10:49.230Z,90.54
2022-12-25T09:13:15.612Z,90.76
2022-12-25T09:15:42.104Z,91.16
2022-12-25T09:18:08.547Z,91.72
2022-12-25T09:20:34.908Z,92.06
2022-12-25T09:23:01.299Z,92.40
2022-12-25T09:25:27.803Z,92.71
2022-12-25T09:27:56.287Z,92.90
2022-12-25T09:30:23.056Z,93.13
2022-12-25T09:32:49.523Z,93.10
2022-12-25T09:35:18.574Z,93.39
2022-12-25T09:37:45.274Z,93.39
2022-12-25T09:40:21.206Z,93.96
2022-12-25T09:42:48.928Z,94.77
2022-12-25T09:45:25.482Z,95.23
2022-12-25T09:47:56.330Z,95.60
2022-12-25T09:50:46.047Z,95.91
2022-12-25T09:53:25.072Z,96.00
2022-12-25T09:56:15.167Z,96.22
2022-12-25T09:58:41.628Z,96.55
2022-12-25T10:01:19.714Z,96.78
2022-12-25T10:03:46.188Z,97.00
2022-12-25T10:06:25.503Z,97.16
2022-12-25T10:09:20.983Z,97.26
2022-12-25T10:11:50.130Z,97.37
2022-12-25T10:14:30.978Z,97.47
2022-12-25T10:17:19.048Z,97.59
2022-12-25T10:20:08.861Z,97.66
2022-12-25T10:22:40.590Z,97.73
2022-12-25T10:25:16.361Z,97.77
2022-12-25T10:27:44.088Z,97.75
2022-12-25T10:30:15.845Z,97.73
2022-12-25T10:32:43.285Z,97.73
2022-12-25T10:35:15.264Z,97.81
2022-12-25T10:37:43.200Z,97.82
2022-12-25T10:40:50.279Z,97.83
2022-12-25T10:43:45.335Z,97.85
2022-12-25T10:46:13.565Z,97.84
2022-12-25T10:48:49.495Z,97.81
2022-12-25T10:51:28.982Z,97.77
2022-12-25T10:53:55.487Z,97.76
2022-12-25T10:56:21.909Z,97.71
2022-12-25T10:58:48.289Z,97.64
2022-12-25T11:01:15.243Z,97.65
2022-12-25T11:03:46.913Z,97.65
2022-12-25T11:06:42.617Z,97.66
2022-12-25T11:09:16.633Z,97.70
2022-12-25T11:11:43.127Z,97.71
2022-12-25T11:14:17.745Z,97.72
2022-12-25T11:16:44.899Z,97.68
2022-12-25T11:19:26.677Z,97.64
2022-12-25T11:21:55.697Z,97.69
2022-12-25T11:24:25.399Z,97.76
2022-12-25T11:26:55.154Z,97.77
2022-12-25T11:29:52.663Z,97.74
2022-12-25T11:32:35.269Z,97.73
2022-12-25T11:35:02.836Z,97.73
2022-12-25T11:37:38.337Z,97.67
2022-12-25T11:40:06.403Z,97.68
2022-12-25T11:42:44.311Z,97.64
2022-12-25T11:45:13.267Z,97.59
2022-12-25T11:47:54.280Z,97.54
2022-12-25T11:50:34.221Z,97.56
2022-12-25T11:53:22.081Z,97.53
2022-12-25T11:55:56.342Z,97.46
2022-12-25T11:58:28.981Z,97.45
2022-12-25T12:00:58.768Z,97.38
2022-12-25T12:03:35.238Z,97.38
2022-12-25T12:06:06.996Z,97.28
2022-12-25T12:08:35.657Z,97.26
2022-12-25T12:11:17.306Z,97.16
2022-12-25T12:14:03.922Z,97.00
2022-12-25T12:16:30.697Z,96.73
2022-12-25T12:18:57.332Z,96.63
2022-12-25T12:21:27.261Z,96.48
2022-12-25T12:24:03.960Z,96.23
2022-12-25T12:26:36.731Z,96.02
2022-12-25T12:29:05.986Z,95.67
2022-12-25T12:31:45.372Z,95.56
2022-12-25T12:34:43.092Z,95.51
2022-12-25T12:37:25.153Z,95.52
2022-12-25T12:39:54.525Z,95.38
2022-12-25T12:42:26.076Z,95.32
2022-12-25T12:44:55.402Z,95.25
2022-12-25T12:47:52.065Z,95.25
2022-12-25T12:50:45.539Z,95.15
2022-12-25T12:53:30.565Z,95.02
2022-12-25T12:55:57.190Z,95.12
2022-12-25T12:58:35.455Z,94.99
2022-12-25T13:01:23.250Z,94.91
2022-12-25T13:04:00.519Z,94.83
2022-12-25T13:06:45.179Z,94.84
2022-12-25T13:09:41.052Z,94.58
2022-12-25T13:12:08.336Z,94.57
2022-12-25T13:14:35.543Z,94.51
2022-12-25T13:17:02.058Z,94.42
2022-12-25T13:19:29.212Z,94.36
2022-12-25T13:21:58.285Z,94.28
2022-12-25T13:24:30.595Z,94.34
2022-12-25T13:26:57.293Z,94.15
2022-12-25T13:29:32.042Z,94.09
2022-12-25T13:32:00.550Z,94.01
2022-12-25T13:34:35.706Z,93.90
2022-12-25T13:37:17.695Z,93.64
2022-12-25T13:39:53.616Z,93.53
2022-12-25T13:42:23.779Z,93.53
2022-12-25T13:45:01.708Z,93.50
2022-12-25T13:47:36.916Z,93.29
2022-12-25T13:50:28.135Z,93.22
2022-12-25T13:52:56.663Z,93.15
2022-12-25T13:55:26.149Z,93.06
2022-12-25T13:57:55.322Z,92.93
2022-12-25T14:00:23.512Z,93.10
2022-12-25T14:02:51.568Z,92.90
2022-12-25T14:05:43.069Z,92.77
2022-12-25T14:08:22.114Z,92.71
2022-12-25T14:10:51.603Z,92.60
2022-12-25T14:13:20.999Z,92.55
2022-12-25T14:15:48.798Z,92.44
2022-12-25T14:18:19.200Z,92.47
2022-12-25T14:20:59.446Z,92.48
2022-12-25T14:23:26.889Z,92.45
2022-12-25T14:25:53.639Z,92.51
2022-12-25T14:28:34.181Z,92.62
2022-12-25T14:31:02.533Z,92.70
2022-12-25T14:33:36.735Z,92.58
2022-12-25T14:36:03.927Z,92.54
2022-12-25T14:38:35.159Z,92.71
2022-12-25T14:41:19.826Z,92.55
2022-12-25T14:43:55.355Z,92.50
2022-12-25T14:46:27.348Z,92.47
2022-12-25T14:49:06.760Z,92.44
2022-12-25T14:51:38.116Z,92.24
2022-12-25T14:54:16.840Z,92.21
2022-12-25T14:56:48.271Z,92.02
2022-12-25T14:59:19.533Z,91.77
2022-12-25T15:01:52.853Z,91.64
2022-12-25T15:04:20.659Z,91.33
2022-12-25T15:07:06.935Z,91.15
2022-12-25T15:09:35.851Z,91.24
2022-12-25T15:12:02.411Z,91.14
2022-12-25T15:14:31.159Z,90.96
2022-12-25T15:17:00.620Z,91.11
2022-12-25T15:19:36.964Z,90.94
2022-12-25T15:22:04.603Z,90.81
2022-12-25T15:24:31.170Z,90.66
2022-12-25T15:27:00.109Z,90.52
2022-12-25T15:29:59.739Z,90.25
2022-12-25T15:32:21.944Z,90.26
2022-12-25T15:34:49.871Z,90.04
2022-12-25T15:37:18.189Z,89.90
2022-12-25T15:39:45.196Z,89.77
2022-12-25T15:42:21.195Z,89.46
2022-12-25T15:44:47.701Z,89.19
2022-12-25T15:47:17.520Z,88.94
2022-12-25T15:49:43.965Z,88.83
2022-12-25T15:52:14.925Z,88.94
2022-12-25T15:54:41.431Z,88.86
2022-12-25T15:57:18.720Z,88.79
2022-12-25T15:59:45.231Z,88.92
2022-12-25T16:02:18.063Z,88.78
2022-12-25T16:04:44.706Z,88.85
2022-12-25T16:07:16.381Z,88.82
2022-12-25T16:09:43.089Z,88.88
2022-12-25T16:12:09.849Z,88.40
2022-12-25T16:14:36.721Z,88.26
2022-12-25T16:17:04.483Z,88.19
2022-12-25T16:19:31.450Z,88.21
2022-12-25T16:21:58.042Z,88.32
2022-12-25T16:24:24.511Z,88.09
2022-12-25T16:26:51.005Z,87.97
2022-12-25T16:29:17.498Z,88.11
2022-12-25T16:31:44.303Z,88.07
2022-12-25T16:34:10.776Z,88.00
2022-12-25T16:36:37.338Z,87.92
2022-12-25T16:39:05.257Z,87.92
2022-12-25T16:41:31.728Z,87.98
2022-12-25T16:43:58.381Z,88.13
2022-12-25T16:46:24.823Z,88.01
2022-12-25T16:48:51.262Z,87.89
2022-12-25T16:51:20.443Z,88.16
2022-12-25T16:53:47.263Z,88.10
2022-12-25T16:56:17.403Z,88.03
2022-12-25T16:58:46.597Z,87.45
2022-12-25T17:01:15.691Z,87.58
2022-12-25T17:03:42.373Z,87.51
2022-12-25T17:06:23.122Z,87.36
2022-12-25T17:08:50.848Z,87.20
2022-12-25T17:11:26.126Z,87.33
2022-12-25T17:13:53.893Z,87.72
2022-12-25T17:16:24.587Z,87.57
2022-12-25T17:18:56.083Z,87.82
2022-12-25T17:21:23.562Z,87.87
2022-12-25T17:23:50.363Z,87.75
2022-12-25T17:26:16.768Z,87.46
2022-12-25T17:28:43.210Z,87.23
2022-12-25T17:31:11.435Z,87.08
2022-12-25T17:33:39.638Z,86.90
2022-12-25T17:36:09.895Z,86.41
2022-12-25T17:38:37.344Z,86.25
2022-12-25T17:41:05.573Z,86.13
2022-12-25T17:43:33.452Z,85.88
2022-12-25T17:46:07.634Z,85.70
2022-12-25T17:48:37.637Z,85.75
2022-12-25T17:51:06.383Z,85.45
2022-12-25T17:53:35.762Z,84.90
2022-12-25T17:56:02.259Z,85.38
2022-12-25T17:58:28.987Z,85.68
2022-12-25T18:00:55.523Z,85.33
2022-12-25T18:03:22.615Z,85.24
2022-12-25T18:05:49.363Z,85.40
2022-12-25T18:08:15.858Z,85.14
2022-12-25T18:10:43.768Z,84.89
2022-12-25T18:13:11.370Z,84.68
2022-12-25T18:15:41.453Z,84.56
2022-12-25T18:18:08.714Z,84.53
2022-12-25T18:20:39.924Z,84.61
2022-12-25T18:23:07.650Z,84.36
2022-12-25T18:25:34.544Z,84.03
2022-12-25T18:28:03.015Z,83.99
2022-12-25T18:30:29.547Z,83.95
2022-12-25T18:32:55.939Z,84.02
2022-12-25T18:35:22.582Z,84.00
2022-12-25T18:37:48.977Z,84.35
2022-12-25T18:40:15.418Z,84.48
2022-12-25T18:42:43.761Z,83.79
2022-12-25T18:45:13.325Z,83.69
2022-12-25T18:47:40.539Z,83.26
2022-12-25T18:50:07.927Z,83.35
2022-12-25T18:52:48.462Z,83.46
2022-12-25T18:57:36.088Z,83.58
2022-12-25T19:00:04.087Z,83.70
2022-12-25T19:02:30.590Z,83.77
2022-12-25T19:04:57.069Z,83.98
2022-12-25T19:07:23.751Z,83.63
2022-12-25T19:09:50.784Z,83.62
2022-12-25T19:12:17.766Z,83.70
2022-12-25T19:14:47.330Z,83.64
2022-12-25T19:17:15.161Z,83.38
2022-12-25T19:19:41.660Z,83.56
2022-12-25T19:22:08.462Z,83.64
2022-12-25T19:24:36.512Z,83.11
2022-12-25T19:27:03.713Z,83.08
2022-12-25T19:29:30.354Z,83.08
2022-12-25T19:31:57.039Z,83.12
2022-12-25T19:34:23.706Z,82.79
2022-12-25T19:36:50.811Z,82.49
2022-12-25T19:39:17.317Z,82.08
2022-12-25T19:41:44.456Z,81.89
2022-12-25T19:44:10.882Z,81.49
2022-12-25T19:46:40.552Z,81.40
2022-12-25T19:49:11.265Z,81.41
2022-12-25T19:51:40.453Z,81.39
2022-12-25T19:54:07.866Z,81.00
2022-12-25T19:56:34.649Z,80.90
2022-12-25T19:59:01.192Z,80.84
2022-12-25T20:01:29.597Z,80.70
2022-12-25T20:03:56.248Z,80.73
2022-12-25T20:06:28.301Z,80.29
2022-12-25T20:08:57.153Z,80.41
2022-12-25T20:11:26.597Z,80.12
2022-12-25T20:13:53.176Z,80.23
2022-12-25T20:16:20.415Z,80.31
2022-12-25T20:18:46.984Z,80.05
2022-12-25T20:21:16.415Z,80.19
2022-12-25T20:23:44.304Z,80.23
2022-12-25T20:26:12.023Z,80.42
2022-12-25T20:28:39.527Z,79.78
2022-12-25T20:31:21.311Z,80.15
2022-12-25T20:33:48.326Z,80.02
2022-12-25T20:36:15.034Z,80.02
2022-12-25T20:38:41.830Z,79.95
2022-12-25T20:41:28.376Z,80.08
2022-12-25T20:43:55.599Z,80.58
2022-12-25T20:46:22.612Z,80.99
2022-12-25T20:48:49.204Z,80.80
2022-12-25T20:51:18.658Z,81.46
2022-12-25T20:53:45.769Z,81.43
2022-12-25T20:56:14.150Z,81.80
2022-12-25T20:58:42.449Z,82.08
2022-12-25T21:01:18.112Z,82.05
2022-12-25T21:03:45.233Z,82.67
2022-12-25T21:06:12.369Z,82.91
2022-12-25T21:08:40.807Z,83.30
2022-12-25T21:11:07.616Z,83.47
2022-12-25T21:13:36.306Z,83.78
2022-12-25T21:16:08.178Z,83.84
2022-12-25T21:18:35.271Z,84.02
2022-12-25T21:21:07.185Z,84.00
2022-12-25T21:23:37.013Z,84.21
2022-12-25T21:26:18.386Z,84.23
2022-12-25T21:28:46.339Z,83.97
2022-12-25T21:31:13.279Z,83.62
2022-12-25T21:33:53.843Z,83.41
2022-12-25T21:36:25.118Z,83.56
2022-12-25T21:39:02.750Z,83.48
2022-12-25T21:41:32.398Z,83.54
2022-12-25T21:44:00.195Z,83.40
2022-12-25T21:46:27.517Z,83.27
2022-12-25T21:48:54.781Z,83.62
2022-12-25T21:51:46.576Z,83.56
2022-12-25T21:54:14.369Z,83.47
2022-12-25T21:56:45.301Z,83.43
2022-12-25T21:59:14.562Z,83.31
2022-12-25T22:01:49.676Z,83.15
2022-12-25T22:04:18.335Z,82.89
2022-12-25T22:07:04.146Z,82.51
2022-12-25T22:09:30.983Z,82.31
2022-12-25T22:12:16.812Z,82.33
2022-12-25T22:14:55.332Z,82.63
2022-12-25T22:17:59.857Z,82.22
2022-12-25T22:20:30.529Z,81.39
2022-12-25T22:22:58.316Z,81.57
2022-12-25T22:25:25.046Z,81.71
2022-12-25T22:27:52.331Z,81.38
2022-12-25T22:30:22.047Z,81.39
2022-12-25T22:32:49.401Z,81.63
2022-12-25T22:35:16.746Z,81.33
2022-12-25T22:37:43.785Z,80.69
2022-12-25T22:40:13.924Z,80.40
2022-12-25T22:42:41.350Z,79.23
2022-12-25T22:45:08.630Z,79.54
2022-12-25T22:47:35.345Z,79.01
2022-12-25T22:50:01.922Z,79.38
2022-12-25T22:52:28.359Z,79.19
2022-12-25T22:54:56.032Z,79.85
2022-12-25T22:57:22.744Z,79.66
2022-12-25T22:59:51.682Z,78.98
2022-12-25T23:02:18.530Z,78.25
2022-12-25T23:04:45.090Z,78.73
2022-12-25T23:07:14.235Z,78.34
2022-12-25T23:09:40.957Z,77.85
2022-12-25T23:12:07.488Z,77.31
2022-12-25T23:14:40.080Z,77.27
2022-12-25T23:17:34.348Z,76.87
2022-12-25T23:20:19.314Z,76.19
2022-12-25T23:23:05.176Z,76.62
2022-12-25T23:25:52.390Z,76.96
2022-12-25T23:28:39.120Z,77.24
2022-12-25T23:31:06.733Z,77.37
2022-12-25T23:33:33.258Z,77.75
2022-12-25T23:35:59.734Z,77.93
2022-12-25T23:38:26.239Z,78.47
2022-12-25T23:40:52.749Z,78.73
2022-12-25T23:43:19.754Z,78.93
2022-12-25T23:45:46.187Z,80.48
2022-12-25T23:48:12.577Z,84.07
2022-12-25T23:50:38.966Z,85.48
2022-12-25T23:53:05.440Z,85.14
2022-12-25T23:55:33.564Z,85.23
2022-12-25T23:57:59.941Z,84.76
